Time;durP1;ratioP1;P1;durP2;ratioP2;P2;SDS_P1;SDS_P2;PMS_P1;PMS_P2;Temp;Humidity;BMP_temperature;BMP_pressure;BME280_temperature;BME280_humidity;BME280_pressure;Samples;Min_cycle;Max_cycle;Signal;HPM_P1;HPM_P2
2023/08/21 00:01:38;;;;;;;6.65;4.70;;;20.30;94.50;;;;;;6169749;23;20148;-87
2023/08/21 00:04:05;;;;;;;6.40;4.40;;;20.30;94.50;;;;;;6168014;23;20191;-87
2023/08/21 00:06:32;;;;;;;5.75;4.43;;;20.30;94.40;;;;;;6168688;23;20149;-87
2023/08/21 00:08:58;;;;;;;6.22;4.55;;;20.30;94.50;;;;;;6194360;23;20141;-87
2023/08/21 00:11:24;;;;;;;6.10;4.57;;;20.30;94.50;;;;;;6210128;23;20190;-87
2023/08/21 00:13:52;;;;;;;6.35;4.68;;;20.30;94.40;;;;;;6246622;23;20177;-87
2023/08/21 00:16:20;;;;;;;5.35;4.15;;;20.30;94.40;;;;;;6144826;23;20244;-87
2023/08/21 00:18:47;;;;;;;5.50;4.40;;;20.30;94.40;;;;;;6193972;23;20603;-87
2023/08/21 00:21:14;;;;;;;5.95;4.40;;;20.30;94.40;;;;;;6193754;23;20181;-87
2023/08/21 00:23:41;;;;;;;8.18;4.47;;;20.20;94.40;;;;;;6168709;23;20153;-87
2023/08/21 00:26:07;;;;;;;6.22;4.35;;;20.30;94.40;;;;;;6193491;23;20157;-87
2023/08/21 00:28:34;;;;;;;6.30;4.50;;;20.30;94.40;;;;;;6168972;23;20157;-88
2023/08/21 00:31:01;;;;;;;5.88;4.28;;;20.30;94.50;;;;;;6169150;23;20192;-87
2023/08/21 00:33:29;;;;;;;6.35;4.68;;;20.20;94.40;;;;;;6194974;23;20137;-87
2023/08/21 00:35:56;;;;;;;5.95;4.63;;;20.30;94.40;;;;;;6219739;23;20168;-88
2023/08/21 00:38:22;;;;;;;6.50;4.97;;;20.30;94.40;;;;;;6219865;23;20180;-87
2023/08/21 00:40:48;;;;;;;5.53;4.25;;;20.30;94.50;;;;;;6194823;23;20138;-87
2023/08/21 00:43:14;;;;;;;6.75;4.45;;;20.30;94.40;;;;;;6194631;23;20137;-88
2023/08/21 00:45:42;;;;;;;6.38;4.80;;;20.30;94.40;;;;;;6194561;23;20150;-88
2023/08/21 00:48:09;;;;;;;5.85;4.32;;;20.30;94.50;;;;;;6194214;23;20473;-88
2023/08/21 00:50:36;;;;;;;6.70;4.50;;;20.30;94.40;;;;;;6219643;23;20177;-88
2023/08/21 00:53:02;;;;;;;6.68;4.50;;;20.30;94.40;;;;;;6219566;23;20191;-87
2023/08/21 00:55:29;;;;;;;5.78;4.43;;;20.30;94.40;;;;;;6170252;23;20662;-88
2023/08/21 00:57:56;;;;;;;7.00;4.72;;;20.30;94.40;;;;;;6219218;23;20581;-87
2023/08/21 01:00:23;;;;;;;6.25;4.60;;;20.30;94.40;;;;;;6220089;23;20209;-88
2023/08/21 01:02:49;;;;;;;6.53;4.72;;;20.30;94.40;;;;;;6169497;23;20146;-88
2023/08/21 01:05:14;;;;;;;5.65;4.40;;;20.30;94.40;;;;;;6194559;23;20207;-87
2023/08/21 01:07:51;;;;;;;6.05;4.57;;;20.20;94.30;;;;;;6168578;23;20153;-87
2023/08/21 01:10:23;;;;;;;6.50;4.20;;;20.30;94.40;;;;;;6168326;23;20673;-87
2023/08/21 01:13:08;;;;;;;5.97;4.53;;;20.30;94.40;;;;;;6144123;23;20556;-88
2023/08/21 01:15:35;;;;;;;7.05;4.97;;;20.30;94.40;;;;;;6149704;23;20191;-88
2023/08/21 01:18:02;;;;;;;6.13;4.53;;;20.30;94.40;;;;;;6167597;23;20156;-87
2023/08/21 01:20:28;;;;;;;6.07;4.47;;;20.30;94.40;;;;;;6143172;23;20157;-87
2023/08/21 01:22:53;;;;;;;6.40;4.32;;;20.30;94.40;;;;;;6143782;23;20581;-87
2023/08/21 01:25:20;;;;;;;6.00;4.22;;;20.30;94.40;;;;;;6168569;23;20153;-87
2023/08/21 01:27:48;;;;;;;6.03;4.57;;;20.30;94.40;;;;;;6193973;23;20165;-86
2023/08/21 01:30:14;;;;;;;6.60;4.40;;;20.20;94.40;;;;;;6193615;23;20473;-87
2023/08/21 01:33:00;;;;;;;6.07;4.47;;;20.30;94.50;;;;;;6193388;23;20138;-86
2023/08/21 01:35:27;;;;;;;6.15;4.30;;;20.20;94.40;;;;;;6168438;23;20185;-87
2023/08/21 01:37:53;;;;;;;7.03;4.72;;;20.20;94.40;;;;;;6193807;23;20141;-87
2023/08/21 01:40:22;;;;;;;6.97;4.93;;;20.20;94.40;;;;;;6092634;23;20140;-87
2023/08/21 01:42:49;;;;;;;6.07;4.70;;;20.20;94.40;;;;;;6142993;23;20176;-87
2023/08/21 01:45:16;;;;;;;6.88;4.65;;;20.30;94.40;;;;;;6193692;23;20140;-87
2023/08/21 01:47:42;;;;;;;6.03;4.13;;;20.30;94.40;;;;;;6168380;23;20245;-87
2023/08/21 01:50:08;;;;;;;6.53;4.60;;;20.30;94.40;;;;;;6192924;23;20133;-87
2023/08/21 01:52:33;;;;;;;5.95;4.35;;;20.30;94.40;;;;;;6192921;23;20137;-87
2023/08/21 01:54:59;;;;;;;6.05;4.50;;;20.30;94.40;;;;;;6193229;23;20254;-87
2023/08/21 01:57:25;;;;;;;6.65;4.60;;;20.20;94.40;;;;;;6168151;23;20156;-86
2023/08/21 01:59:51;;;;;;;9.23;4.93;;;20.30;94.40;;;;;;6168067;23;20141;-87
2023/08/21 02:02:17;;;;;;;5.28;4.30;;;20.30;94.40;;;;;;6168365;23;20230;-87
2023/08/21 02:04:42;;;;;;;5.35;4.22;;;20.20;94.40;;;;;;6143908;23;20153;-87
2023/08/21 02:07:08;;;;;;;5.97;4.53;;;20.20;94.40;;;;;;6167596;23;20493;-87
2023/08/21 02:09:34;;;;;;;7.50;4.80;;;20.30;94.40;;;;;;6192996;23;20195;-87
2023/08/21 02:12:00;;;;;;;6.10;4.47;;;20.30;94.40;;;;;;6168103;23;20540;-88
2023/08/21 02:14:26;;;;;;;6.13;4.57;;;20.30;94.40;;;;;;6192726;23;20149;-86
2023/08/21 02:16:52;;;;;;;6.35;4.70;;;20.30;94.30;;;;;;6193042;23;20175;-86
2023/08/21 02:19:18;;;;;;;7.13;4.60;;;20.30;94.30;;;;;;6197475;23;20141;-89
2023/08/21 02:21:44;;;;;;;5.72;4.47;;;20.30;94.30;;;;;;6176162;23;20195;-87
2023/08/21 02:24:10;;;;;;;6.22;4.35;;;20.30;94.30;;;;;;6175560;23;20152;-88
2023/08/21 02:26:36;;;;;;;5.93;4.35;;;20.30;94.40;;;;;;6176207;23;20152;-87
2023/08/21 02:29:03;;;;;;;6.45;4.68;;;20.20;94.40;;;;;;6175720;23;20161;-86
2023/08/21 02:31:29;;;;;;;6.72;4.43;;;20.30;94.30;;;;;;6201663;23;20152;-87
2023/08/21 02:33:55;;;;;;;6.18;4.30;;;20.30;94.40;;;;;;6147712;23;20213;-87
2023/08/21 02:36:20;;;;;;;5.78;4.32;;;20.30;94.30;;;;;;6143705;23;20596;-87
2023/08/21 02:38:51;;;;;;;6.28;4.38;;;20.20;94.30;;;;;;6169694;23;20592;-87
2023/08/21 02:41:18;;;;;;;6.38;4.60;;;20.20;94.40;;;;;;6142210;23;20156;-87
2023/08/21 02:43:51;;;;;;;6.85;4.97;;;20.20;94.30;;;;;;6168268;23;20153;-87
2023/08/21 02:46:21;;;;;;;5.55;4.18;;;20.20;94.30;;;;;;6166964;23;20504;-87
2023/08/21 02:48:48;;;;;;;6.72;4.70;;;20.30;94.30;;;;;;6142554;23;20210;-87
2023/08/21 02:51:13;;;;;;;5.80;4.32;;;20.30;94.30;;;;;;6167866;23;20152;-87
2023/08/21 02:53:39;;;;;;;6.25;4.25;;;20.30;94.30;;;;;;6143616;23;20222;-87
2023/08/21 02:56:05;;;;;;;5.68;4.68;;;20.20;94.20;;;;;;6192875;23;20631;-87
2023/08/21 02:58:31;;;;;;;7.80;4.82;;;20.20;94.30;;;;;;6192562;23;20153;-87
2023/08/21 03:00:58;;;;;;;6.82;4.72;;;20.30;94.30;;;;;;6168037;23;20149;-86
2023/08/21 03:03:25;;;;;;;6.13;4.82;;;20.20;94.20;;;;;;6117823;23;20793;-87
2023/08/21 03:05:52;;;;;;;6.43;4.60;;;20.20;94.30;;;;;;6168036;23;20179;-87
2023/08/21 03:08:18;;;;;;;5.93;4.57;;;20.30;94.30;;;;;;6192298;23;20141;-87
2023/08/21 03:10:43;;;;;;;6.18;4.65;;;20.20;94.30;;;;;;6167627;23;20175;-87
2023/08/21 03:13:09;;;;;;;6.32;4.65;;;20.20;94.30;;;;;;6167427;23;20627;-87
2023/08/21 03:15:35;;;;;;;6.00;4.50;;;20.20;94.30;;;;;;6167703;23;20180;-87
2023/08/21 03:18:02;;;;;;;6.00;4.60;;;20.20;94.30;;;;;;6167868;23;20155;-87
2023/08/21 03:20:28;;;;;;;5.45;4.53;;;20.30;94.30;;;;;;6166625;23;20651;-87
2023/08/21 03:22:54;;;;;;;6.07;4.45;;;20.30;94.30;;;;;;6143091;23;20172;-87
2023/08/21 03:25:20;;;;;;;7.45;4.65;;;20.20;94.30;;;;;;6167604;23;20153;-88
2023/08/21 03:27:49;;;;;;;7.03;4.75;;;20.20;94.30;;;;;;6193179;23;20149;-86
2023/08/21 03:30:15;;;;;;;6.55;4.53;;;20.20;94.30;;;;;;6190728;23;20133;-87
2023/08/21 03:32:41;;;;;;;7.65;5.00;;;20.30;94.30;;;;;;6143397;23;20153;-86
2023/08/21 03:35:08;;;;;;;6.00;4.57;;;20.20;94.30;;;;;;6192641;23;20172;-86
2023/08/21 03:37:33;;;;;;;7.47;4.47;;;20.20;94.30;;;;;;6091942;23;20472;-87
2023/08/21 03:40:00;;;;;;;5.65;4.25;;;20.20;94.30;;;;;;6167713;23;20133;-87
2023/08/21 03:42:26;;;;;;;6.53;4.60;;;20.20;94.30;;;;;;6194127;23;20137;-86
2023/08/21 03:44:52;;;;;;;7.25;4.72;;;20.20;94.30;;;;;;6169289;23;20151;-87
2023/08/21 03:47:18;;;;;;;7.32;4.78;;;20.30;94.30;;;;;;6169476;23;20491;-86
2023/08/21 03:49:43;;;;;;;6.45;4.57;;;20.20;94.20;;;;;;6194546;23;20144;-86
2023/08/21 03:52:10;;;;;;;5.93;4.28;;;20.20;94.60;;;;;;6169382;23;20232;-86
2023/08/21 03:54:35;;;;;;;5.32;4.13;;;20.20;94.20;;;;;;6169344;23;20145;-86
2023/08/21 03:57:01;;;;;;;6.03;4.25;;;20.20;94.20;;;;;;6144650;23;20187;-87
2023/08/21 03:59:27;;;;;;;8.05;4.55;;;20.20;94.20;;;;;;6194143;23;20149;-86
2023/08/21 04:01:54;;;;;;;6.18;4.45;;;20.20;94.20;;;;;;6145065;23;20176;-86
2023/08/21 04:04:19;;;;;;;6.97;4.68;;;20.30;94.20;;;;;;6169317;23;20157;-87
2023/08/21 04:06:45;;;;;;;7.15;4.32;;;20.20;94.20;;;;;;6092157;23;20141;-87
2023/08/21 04:09:11;;;;;;;6.80;4.90;;;20.20;94.20;;;;;;6194444;23;20149;-87
2023/08/21 04:11:36;;;;;;;6.38;4.72;;;20.20;94.10;;;;;;6168814;23;20204;-87
2023/08/21 04:14:02;;;;;;;6.05;4.60;;;20.20;94.20;;;;;;6169498;23;20141;-87
2023/08/21 04:16:28;;;;;;;6.47;4.78;;;20.30;94.30;;;;;;6194140;23;20268;-87
2023/08/21 04:18:54;;;;;;;6.13;4.55;;;20.20;94.20;;;;;;6194060;23;20211;-87
2023/08/21 04:21:20;;;;;;;6.30;4.63;;;20.30;94.20;;;;;;6193880;23;20141;-87
2023/08/21 04:23:46;;;;;;;6.45;4.63;;;20.20;94.20;;;;;;6194588;23;20220;-87
2023/08/21 04:26:12;;;;;;;7.00;4.65;;;20.20;94.20;;;;;;6194190;23;20145;-87
2023/08/21 04:28:37;;;;;;;6.43;4.50;;;20.20;94.20;;;;;;6194515;23;20580;-88
2023/08/21 04:31:05;;;;;;;6.07;4.55;;;20.20;94.10;;;;;;6168993;23;20589;-86
2023/08/21 04:33:31;;;;;;;6.07;4.47;;;20.20;94.10;;;;;;6193967;23;20149;-86
2023/08/21 04:35:57;;;;;;;7.10;4.93;;;20.30;94.20;;;;;;6169022;23;20214;-87
2023/08/21 04:38:23;;;;;;;6.07;4.57;;;20.30;94.20;;;;;;6169674;23;20219;-87
2023/08/21 04:40:49;;;;;;;6.20;4.57;;;20.30;94.20;;;;;;6168956;23;20149;-87
2023/08/21 04:43:15;;;;;;;7.05;4.70;;;20.20;94.10;;;;;;6194063;23;20530;-87
2023/08/21 04:45:50;;;;;;;6.32;4.60;;;20.20;94.10;;;;;;6193881;23;20635;-87
2023/08/21 04:48:16;;;;;;;5.78;4.35;;;20.20;94.10;;;;;;6169255;23;20236;-87
2023/08/21 04:50:42;;;;;;;6.88;4.72;;;20.30;94.50;;;;;;6193972;23;20143;-86
2023/08/21 04:53:08;;;;;;;6.25;4.60;;;20.30;94.20;;;;;;6168681;23;20157;-86
2023/08/21 04:55:34;;;;;;;6.43;4.43;;;20.20;94.10;;;;;;6194039;23;20243;-87
2023/08/21 04:58:00;;;;;;;6.65;4.45;;;20.30;94.10;;;;;;6193912;23;20556;-87
2023/08/21 05:00:25;;;;;;;5.60;4.45;;;20.30;94.10;;;;;;6144047;23;20149;-87
2023/08/21 05:02:51;;;;;;;5.88;4.30;;;20.20;94.10;;;;;;6193735;23;20148;-87
2023/08/21 05:05:17;;;;;;;5.80;4.47;;;20.20;94.10;;;;;;6168848;23;20149;-87
2023/08/21 05:07:43;;;;;;;6.03;4.53;;;20.30;94.10;;;;;;6092064;23;20136;-86
2023/08/21 05:10:09;;;;;;;6.00;4.35;;;20.20;94.00;;;;;;6193860;23;20168;-86
2023/08/21 05:12:34;;;;;;;6.22;4.32;;;20.30;94.10;;;;;;6143890;23;20275;-88
2023/08/21 05:15:00;;;;;;;6.43;4.43;;;20.30;94.10;;;;;;6168479;23;20145;-87
2023/08/21 05:17:26;;;;;;;6.50;4.50;;;20.20;94.10;;;;;;6194000;23;20141;-86
2023/08/21 05:19:52;;;;;;;6.38;4.35;;;20.30;94.10;;;;;;6169237;23;20145;-87
2023/08/21 05:22:18;;;;;;;6.65;4.60;;;20.30;94.10;;;;;;6193701;23;20607;-87
2023/08/21 05:24:44;;;;;;;5.22;4.40;;;20.30;94.10;;;;;;6144403;23;20198;-86
2023/08/21 05:27:10;;;;;;;5.78;4.28;;;20.10;94.00;;;;;;6169217;23;20137;-87
2023/08/21 05:29:35;;;;;;;6.43;4.78;;;20.20;94.10;;;;;;6193816;23;20137;-87
2023/08/21 05:32:01;;;;;;;5.80;4.57;;;20.30;94.10;;;;;;6143936;23;20152;-87
2023/08/21 05:34:28;;;;;;;6.47;4.55;;;20.20;94.00;;;;;;6168240;23;20239;-86
2023/08/21 05:36:54;;;;;;;5.85;4.45;;;20.30;94.10;;;;;;6168530;23;20198;-88
2023/08/21 05:39:21;;;;;;;5.78;4.57;;;20.30;94.10;;;;;;6168686;23;20232;-87
2023/08/21 05:41:46;;;;;;;5.72;4.50;;;20.30;94.00;;;;;;6168500;23;20147;-87
2023/08/21 05:44:12;;;;;;;5.50;4.30;;;20.30;94.10;;;;;;6168327;23;20137;-88
2023/08/21 05:46:38;;;;;;;5.63;4.00;;;20.30;94.10;;;;;;6143725;23;20176;-87
2023/08/21 05:49:04;;;;;;;5.53;3.83;;;20.30;94.40;;;;;;6168344;23;20145;-87
2023/08/21 05:51:29;;;;;;;4.32;3.53;;;20.30;94.30;;;;;;6143989;23;20603;-88
2023/08/21 05:53:55;;;;;;;5.15;3.92;;;20.40;94.20;;;;;;6143716;23;20199;-87
2023/08/21 05:56:21;;;;;;;5.28;4.13;;;20.40;94.20;;;;;;6193679;23;20629;-87
2023/08/21 05:58:47;;;;;;;5.03;3.88;;;20.40;94.20;;;;;;6168292;23;20133;-88
2023/08/21 06:01:13;;;;;;;5.45;3.85;;;20.40;94.20;;;;;;6168342;23;20508;-88
2023/08/21 06:03:40;;;;;;;4.22;3.30;;;20.40;94.20;;;;;;6193694;23;20226;-87
2023/08/21 06:06:08;;;;;;;4.07;3.30;;;20.50;94.20;;;;;;6118202;23;20175;-88
2023/08/21 06:08:35;;;;;;;4.20;3.30;;;20.50;94.10;;;;;;6166754;23;20160;-87
2023/08/21 06:11:00;;;;;;;4.88;3.65;;;20.50;94.10;;;;;;6166943;23;20156;-88
2023/08/21 06:13:26;;;;;;;4.10;3.33;;;20.40;94.10;;;;;;6168002;23;20207;-87
2023/08/21 06:15:54;;;;;;;4.53;3.60;;;20.40;94.10;;;;;;6168806;23;20165;-87
2023/08/21 06:18:20;;;;;;;4.80;3.60;;;20.40;94.20;;;;;;6167603;23;20596;-87
2023/08/21 06:20:46;;;;;;;4.70;3.47;;;20.50;94.30;;;;;;6168526;23;20144;-88
2023/08/21 06:23:11;;;;;;;4.05;3.38;;;20.40;94.30;;;;;;6192948;23;20137;-88
2023/08/21 06:25:39;;;;;;;4.57;3.42;;;20.50;94.30;;;;;;6193047;23;20172;-88
2023/08/21 06:28:07;;;;;;;5.13;3.47;;;20.40;94.40;;;;;;6142254;23;20167;-88
2023/08/21 06:30:34;;;;;;;4.53;3.25;;;20.40;94.40;;;;;;6142517;23;20191;-87
2023/08/21 06:33:00;;;;;;;4.55;3.22;;;20.50;94.40;;;;;;6167530;23;20156;-87
2023/08/21 06:35:28;;;;;;;4.15;3.40;;;20.40;94.50;;;;;;6168099;23;20176;-87
2023/08/21 06:37:56;;;;;;;5.10;3.53;;;20.30;94.50;;;;;;6167168;23;20177;-88
2023/08/21 06:40:22;;;;;;;4.68;3.45;;;20.50;94.60;;;;;;6118243;23;20161;-88
2023/08/21 06:42:50;;;;;;;4.22;3.28;;;20.40;94.50;;;;;;6143811;23;20233;-88
2023/08/21 06:45:18;;;;;;;3.72;3.10;;;20.40;94.80;;;;;;6118135;23;20161;-87
2023/08/21 06:47:44;;;;;;;4.22;3.65;;;20.40;94.40;;;;;;6166752;23;20167;-88
2023/08/21 06:50:10;;;;;;;4.68;3.60;;;20.40;94.40;;;;;;6193380;23;20446;-88
2023/08/21 06:52:36;;;;;;;4.10;3.38;;;20.40;94.50;;;;;;6193507;23;20133;-88
2023/08/21 06:55:02;;;;;;;4.75;3.70;;;20.40;94.50;;;;;;6168218;23;20141;-87
2023/08/21 06:57:27;;;;;;;3.60;3.20;;;20.30;94.50;;;;;;6192454;23;20136;-88
2023/08/21 06:59:54;;;;;;;4.53;3.33;;;20.40;94.50;;;;;;6168219;23;20152;-87
2023/08/21 07:02:23;;;;;;;4.13;3.35;;;20.40;94.50;;;;;;6167785;23;20157;-88
2023/08/21 07:04:48;;;;;;;4.13;3.33;;;20.40;94.50;;;;;;6144193;23;20145;-88
2023/08/21 07:07:14;;;;;;;3.83;3.10;;;20.40;94.50;;;;;;6143181;23;20611;-88
2023/08/21 07:09:40;;;;;;;3.85;3.10;;;20.40;94.60;;;;;;6143444;23;20176;-89
2023/08/21 07:12:06;;;;;;;4.45;3.10;;;20.40;95.00;;;;;;6143345;23;20197;-88
2023/08/21 07:14:32;;;;;;;4.18;3.40;;;20.40;94.60;;;;;;6192774;23;20503;-88
2023/08/21 07:16:57;;;;;;;4.45;3.25;;;20.30;94.60;;;;;;6194296;23;20179;-88
2023/08/21 07:19:26;;;;;;;3.50;3.08;;;20.30;94.60;;;;;;6145830;23;20149;-87
2023/08/21 07:21:52;;;;;;;4.03;3.25;;;20.30;94.60;;;;;;6107001;23;20151;-88
2023/08/21 07:24:18;;;;;;;4.20;3.60;;;20.40;94.60;;;;;;6130955;23;20152;-88
2023/08/21 07:26:43;;;;;;;4.32;3.65;;;20.40;94.60;;;;;;6131257;23;20255;-89
2023/08/21 07:29:09;;;;;;;4.03;3.03;;;20.30;94.50;;;;;;6084106;23;20155;-89
2023/08/21 07:31:36;;;;;;;4.22;3.30;;;20.40;94.30;;;;;;6051388;23;20160;-89
2023/08/21 07:34:10;;;;;;;3.55;2.90;;;20.40;94.30;;;;;;6072892;23;20157;-90
2023/08/21 07:36:39;;;;;;;4.13;3.30;;;20.40;94.20;;;;;;5980181;23;20262;-88
2023/08/21 07:39:05;;;;;;;4.38;3.38;;;20.50;94.00;;;;;;6026041;23;20156;-88
2023/08/21 07:41:31;;;;;;;3.83;3.03;;;20.50;94.10;;;;;;6050796;23;20208;-88
2023/08/21 07:43:58;;;;;;;3.45;3.03;;;20.50;94.20;;;;;;6049196;23;20165;-89
2023/08/21 07:46:26;;;;;;;4.18;3.47;;;20.50;94.10;;;;;;6001782;23;20188;-88
2023/08/21 07:48:54;;;;;;;3.70;3.30;;;20.40;94.10;;;;;;6001597;23;20200;-88
2023/08/21 07:51:20;;;;;;;3.63;3.22;;;20.40;94.10;;;;;;6025505;23;20240;-88
2023/08/21 07:53:45;;;;;;;4.22;3.40;;;20.50;94.20;;;;;;6100990;23;20683;-87
2023/08/21 07:56:12;;;;;;;3.83;3.38;;;20.40;94.10;;;;;;6106813;23;20178;-87
2023/08/21 07:58:38;;;;;;;4.22;2.92;;;20.40;94.10;;;;;;6106783;23;20476;-88
2023/08/21 08:01:04;;;;;;;3.42;3.05;;;20.40;94.10;;;;;;6131362;23;20166;-87
2023/08/21 08:03:31;;;;;;;4.07;3.28;;;20.40;94.00;;;;;;6186238;23;20156;-87
2023/08/21 08:05:57;;;;;;;4.07;3.28;;;20.40;94.10;;;;;;6146725;23;20235;-87
2023/08/21 08:08:23;;;;;;;4.40;3.55;;;20.40;94.00;;;;;;6196737;23;20167;-88
2023/08/21 08:10:49;;;;;;;3.97;3.40;;;20.40;94.10;;;;;;6195900;23;20145;-88
2023/08/21 08:13:15;;;;;;;4.35;3.17;;;20.40;94.10;;;;;;6146055;23;20283;-88
2023/08/21 08:15:41;;;;;;;3.63;3.30;;;20.40;94.00;;;;;;6170275;23;20191;-87
2023/08/21 08:18:11;;;;;;;3.92;3.10;;;20.40;94.00;;;;;;6197204;23;20144;-88
2023/08/21 08:20:44;;;;;;;4.88;3.33;;;20.40;93.90;;;;;;6177833;23;20623;-89
2023/08/21 08:23:23;;;;;;;6.22;3.28;;;20.40;93.90;;;;;;6168941;23;20156;-88
2023/08/21 08:25:48;;;;;;;5.03;3.25;;;20.50;93.80;;;;;;6146570;23;20492;-88
2023/08/21 08:28:14;;;;;;;4.32;3.60;;;20.40;93.50;;;;;;6147082;23;20157;-88
2023/08/21 08:31:00;;;;;;;4.07;3.35;;;20.40;93.50;;;;;;6197840;23;20168;-87
2023/08/21 08:33:29;;;;;;;3.70;3.30;;;20.50;93.60;;;;;;6174161;23;20561;-87
2023/08/21 08:36:18;;;;;;;4.82;3.28;;;20.50;93.50;;;;;;6172090;23;20168;-88
2023/08/21 08:38:49;;;;;;;3.58;3.15;;;20.50;93.40;;;;;;6126344;23;20192;-88
2023/08/21 08:41:25;;;;;;;5.32;3.30;;;20.50;93.30;;;;;;6196294;23;20587;-87
2023/08/21 08:43:53;;;;;;;4.32;3.10;;;20.60;93.30;;;;;;6172636;23;20156;-88
2023/08/21 08:46:21;;;;;;;3.63;3.10;;;20.60;93.30;;;;;;6197213;23;20138;-88
2023/08/21 08:48:52;;;;;;;3.20;2.90;;;20.50;93.30;;;;;;6101163;23;20627;-88
2023/08/21 08:51:28;;;;;;;3.60;3.28;;;20.50;93.30;;;;;;6178370;23;20172;-89
2023/08/21 08:53:58;;;;;;;3.90;3.17;;;20.50;93.20;;;;;;6175709;23;20198;-88
2023/08/21 08:56:28;;;;;;;5.13;3.40;;;20.50;93.20;;;;;;6175612;23;20193;-88
2023/08/21 08:59:02;;;;;;;3.30;3.00;;;20.60;93.20;;;;;;6148322;23;20161;-88
2023/08/21 09:01:28;;;;;;;4.97;3.30;;;20.60;93.20;;;;;;6195948;23;20515;-88
2023/08/21 09:03:58;;;;;;;4.82;3.38;;;20.60;93.10;;;;;;6169821;23;20137;-88
2023/08/21 09:06:26;;;;;;;3.50;3.20;;;20.60;93.10;;;;;;6118888;23;20157;-88
2023/08/21 09:08:54;;;;;;;3.78;3.33;;;20.70;93.10;;;;;;6168709;23;20156;-89
2023/08/21 09:11:20;;;;;;;3.63;3.30;;;20.60;93.10;;;;;;6144692;23;20226;-89
2023/08/21 09:13:49;;;;;;;5.18;3.55;;;20.60;93.10;;;;;;6163310;23;20660;-89
2023/08/21 09:16:18;;;;;;;6.65;3.15;;;20.60;93.00;;;;;;6163125;23;20191;-90
2023/08/21 09:18:53;;;;;;;5.93;3.42;;;20.50;92.90;;;;;;6163364;23;20529;-89
2023/08/21 09:21:21;;;;;;;4.40;2.90;;;20.60;93.00;;;;;;6163387;23;20150;-88
2023/08/21 09:23:48;;;;;;;4.03;3.33;;;20.60;92.90;;;;;;6187847;23;20181;-89
2023/08/21 09:26:21;;;;;;;4.03;3.30;;;20.60;93.00;;;;;;6213743;23;20146;-89
2023/08/21 09:28:49;;;;;;;4.25;3.42;;;20.60;92.90;;;;;;6215404;23;20158;-88
2023/08/21 09:31:17;;;;;;;5.00;3.28;;;20.60;92.90;;;;;;6138794;23;20648;-89
2023/08/21 09:33:43;;;;;;;6.63;3.47;;;20.50;92.80;;;;;;6187734;23;20154;-89
2023/08/21 09:36:10;;;;;;;4.07;3.00;;;20.60;92.80;;;;;;6213190;23;20170;-89
2023/08/21 09:38:40;;;;;;;3.40;3.10;;;20.60;92.70;;;;;;6163261;23;20154;-89
2023/08/21 09:41:06;;;;;;;3.80;3.28;;;20.60;92.50;;;;;;6086952;23;20182;-90
2023/08/21 09:43:33;;;;;;;4.50;3.17;;;20.70;92.50;;;;;;6188159;23;20157;-87
2023/08/21 09:45:59;;;;;;;3.83;2.92;;;20.70;92.50;;;;;;6193416;23;20187;-87
2023/08/21 09:48:29;;;;;;;3.63;3.05;;;20.70;92.30;;;;;;6194020;23;20141;-88
2023/08/21 09:50:55;;;;;;;4.60;3.75;;;20.70;92.30;;;;;;6169670;23;20492;-89
2023/08/21 09:53:22;;;;;;;5.97;3.13;;;20.70;92.50;;;;;;6169306;23;20260;-88
2023/08/21 09:55:55;;;;;;;3.80;3.30;;;20.70;92.50;;;;;;6143852;23;20176;-89
2023/08/21 09:58:21;;;;;;;4.82;3.60;;;20.70;92.50;;;;;;6144485;23;20264;-88
2023/08/21 10:01:23;;;;;;;4.70;3.20;;;20.70;92.40;;;;;;6143722;23;20188;-88
2023/08/21 10:03:51;;;;;;;4.53;3.38;;;20.70;92.40;;;;;;6157896;23;20562;-89
2023/08/21 10:06:18;;;;;;;4.30;3.00;;;20.70;92.40;;;;;;6136055;23;20151;-89
2023/08/21 10:08:45;;;;;;;5.20;3.00;;;20.70;92.30;;;;;;6182210;23;20205;-88
2023/08/21 10:11:11;;;;;;;3.75;3.22;;;20.70;92.30;;;;;;6134404;23;20178;-88
2023/08/21 10:13:38;;;;;;;4.53;3.28;;;20.70;92.40;;;;;;6134019;23;20214;-88
2023/08/21 10:16:05;;;;;;;3.28;2.97;;;20.70;92.40;;;;;;6136139;23;20231;-87
2023/08/21 10:18:33;;;;;;;5.55;3.20;;;20.70;92.40;;;;;;6158767;23;20143;-89
2023/08/21 10:21:17;;;;;;;4.43;3.17;;;20.70;92.40;;;;;;6135009;23;20143;-88
2023/08/21 10:23:49;;;;;;;5.60;3.17;;;20.70;92.30;;;;;;6160121;23;20147;-89
2023/08/21 10:26:17;;;;;;;4.53;3.22;;;20.70;92.30;;;;;;6103105;23;20240;-88
2023/08/21 10:28:52;;;;;;;4.75;3.10;;;20.70;92.60;;;;;;6080308;23;20185;-89
2023/08/21 10:31:29;;;;;;;3.40;3.00;;;20.70;92.50;;;;;;6073491;23;20152;-88
2023/08/21 10:33:55;;;;;;;3.85;3.13;;;20.70;92.40;;;;;;6081834;23;20674;-88
2023/08/21 10:36:40;;;;;;;3.42;3.13;;;20.80;92.60;;;;;;6083897;23;20202;-88
2023/08/21 10:39:24;;;;;;;3.47;3.00;;;20.70;92.30;;;;;;6128986;23;20155;-88
2023/08/21 10:41:56;;;;;;;3.72;3.30;;;20.80;92.30;;;;;;6082653;23;20155;-87
2023/08/21 10:44:50;;;;;;;4.38;3.45;;;20.70;92.20;;;;;;6105366;23;20136;-88
2023/08/21 10:47:31;;;;;;;4.47;3.30;;;20.70;92.20;;;;;;6105042;23;20159;-87
2023/08/21 10:49:59;;;;;;;3.63;3.22;;;20.80;92.10;;;;;;6091427;23;20219;-88
2023/08/21 10:52:33;;;;;;;3.80;3.28;;;20.70;92.00;;;;;;6140054;23;20160;-89
2023/08/21 10:55:00;;;;;;;5.45;2.97;;;20.70;92.00;;;;;;6163181;23;20134;-89
2023/08/21 10:57:29;;;;;;;3.72;3.30;;;20.70;92.00;;;;;;6139450;23;20154;-88
2023/08/21 11:00:00;;;;;;;3.42;3.13;;;20.80;92.00;;;;;;6128268;23;20266;-89
2023/08/21 11:02:38;;;;;;;3.78;3.20;;;20.70;92.00;;;;;;6106976;23;20268;-89
2023/08/21 11:05:05;;;;;;;3.42;3.13;;;20.70;91.80;;;;;;6130543;23;20189;-88
2023/08/21 11:07:36;;;;;;;3.97;3.10;;;20.80;91.80;;;;;;6104273;23;20144;-88
2023/08/21 11:10:03;;;;;;;4.25;3.30;;;20.80;91.80;;;;;;6105961;23;20159;-89
2023/08/21 11:12:28;;;;;;;4.22;3.22;;;20.80;91.80;;;;;;6128872;23;20187;-88
2023/08/21 11:14:54;;;;;;;3.22;2.92;;;20.80;91.80;;;;;;6128370;23;20147;-88
2023/08/21 11:17:20;;;;;;;4.10;3.10;;;20.80;91.70;;;;;;6104329;23;20179;-88
2023/08/21 11:19:48;;;;;;;3.05;2.75;;;20.80;91.70;;;;;;6103555;23;20234;-89
2023/08/21 11:22:13;;;;;;;4.15;3.00;;;20.80;91.80;;;;;;6129557;23;20210;-89
2023/08/21 11:24:41;;;;;;;3.05;2.75;;;20.70;91.60;;;;;;6103857;23;20531;-88
2023/08/21 11:27:09;;;;;;;3.30;3.00;;;20.90;91.50;;;;;;6104030;23;20156;-89
2023/08/21 11:29:39;;;;;;;3.33;2.70;;;20.80;91.40;;;;;;6104177;23;20155;-89
2023/08/21 11:32:19;;;;;;;3.20;2.90;;;20.80;91.30;;;;;;6162987;23;20241;-89
2023/08/21 11:34:54;;;;;;;3.08;2.78;;;20.80;91.40;;;;;;6162941;23;20149;-88
2023/08/21 11:37:22;;;;;;;3.53;3.00;;;20.80;91.40;;;;;;6162003;23;20173;-88
2023/08/21 11:39:51;;;;;;;3.10;2.80;;;20.80;91.30;;;;;;6138621;23;20539;-88
2023/08/21 11:42:18;;;;;;;3.67;3.08;;;20.80;91.30;;;;;;6161877;23;20134;-88
2023/08/21 11:44:45;;;;;;;3.08;2.78;;;20.80;91.30;;;;;;6139996;23;20212;-89
2023/08/21 11:47:11;;;;;;;3.17;2.88;;;20.80;91.20;;;;;;6141109;23;20173;-88
2023/08/21 11:49:39;;;;;;;2.90;2.60;;;20.80;91.10;;;;;;6164297;23;20211;-88
2023/08/21 11:52:05;;;;;;;3.58;2.80;;;20.90;91.20;;;;;;6139052;23;20157;-88
2023/08/21 11:54:35;;;;;;;3.30;3.00;;;20.80;91.10;;;;;;6162999;23;20138;-88
2023/08/21 11:57:05;;;;;;;3.03;2.83;;;20.80;91.00;;;;;;6162352;23;20593;-87
2023/08/21 11:59:31;;;;;;;3.03;2.72;;;20.80;91.00;;;;;;6139042;23;20237;-87
2023/08/21 12:01:56;;;;;;;2.92;2.67;;;20.80;91.00;;;;;;6138774;23;20188;-88
2023/08/21 12:04:27;;;;;;;3.90;3.50;;;20.80;90.90;;;;;;6164502;23;20134;-87
2023/08/21 12:06:53;;;;;;;4.30;3.13;;;20.80;91.00;;;;;;6138151;23;20165;-88
2023/08/21 12:09:19;;;;;;;3.45;2.95;;;20.80;91.00;;;;;;6063572;23;20454;-88
2023/08/21 12:11:45;;;;;;;5.18;2.88;;;20.80;90.90;;;;;;6188574;23;20158;-88
2023/08/21 12:14:11;;;;;;;3.42;3.10;;;20.70;90.90;;;;;;6220225;23;20150;-89
2023/08/21 12:16:37;;;;;;;3.30;3.00;;;20.80;91.00;;;;;;6195112;23;20179;-88
2023/08/21 12:19:03;;;;;;;3.08;2.78;;;20.80;90.90;;;;;;6195588;23;20137;-88
2023/08/21 12:21:34;;;;;;;2.83;2.60;;;20.90;90.80;;;;;;6220002;23;20264;-88
2023/08/21 12:24:00;;;;;;;3.00;2.70;;;20.90;90.70;;;;;;6194265;23;20153;-87
2023/08/21 12:26:26;;;;;;;3.30;3.00;;;20.90;90.50;;;;;;6194687;23;20149;-88
2023/08/21 12:28:52;;;;;;;3.00;2.70;;;20.90;90.40;;;;;;6220142;23;20168;-88
2023/08/21 12:31:18;;;;;;;3.15;2.67;;;20.90;90.30;;;;;;6247245;23;20137;-87
2023/08/21 12:33:43;;;;;;;3.70;2.95;;;20.90;90.30;;;;;;6196369;23;20170;-88
2023/08/21 12:36:09;;;;;;;4.40;2.90;;;20.90;90.30;;;;;;6221891;23;20168;-88
2023/08/21 12:38:35;;;;;;;3.20;2.90;;;20.90;90.20;;;;;;6170058;23;20173;-87
2023/08/21 12:41:02;;;;;;;2.92;2.72;;;21.00;90.10;;;;;;6195568;23;20573;-87
2023/08/21 12:43:28;;;;;;;3.22;2.92;;;21.00;90.10;;;;;;6196223;23;20140;-88
2023/08/21 12:45:55;;;;;;;2.70;2.50;;;20.90;90.10;;;;;;6195170;23;20149;-88
2023/08/21 12:48:21;;;;;;;3.10;2.80;;;21.00;90.00;;;;;;6171186;23;20153;-87
2023/08/21 12:50:47;;;;;;;3.42;2.55;;;21.00;89.90;;;;;;6223578;23;20199;-87